Time;durP1;ratioP1;P1;durP2;ratioP2;P2;SDS_P1;SDS_P2;PMS_P1;PMS_P2;Temp;Humidity;BMP_temperature;BMP_pressure;BME280_temperature;BME280_humidity;BME280_pressure;Samples;Min_cycle;Max_cycle;Signal;HPM_P1;HPM_P2
2022/05/16 00:01:48;;;;;;;;;5.00;5.00;;;;;;;;5119998;27;45251;-74
2022/05/16 00:04:13;;;;;;;;;5.67;5.33;;;;;;;;5119678;27;45205;-74
2022/05/16 00:06:39;;;;;;;;;6.00;6.00;;;;;;;;5119613;27;45619;-74
2022/05/16 00:09:04;;;;;;;;;4.67;3.33;;;;;;;;5120197;27;46161;-73
2022/05/16 00:11:29;;;;;;;;;6.00;5.33;;;;;;;;5123721;27;45303;-74
2022/05/16 00:13:55;;;;;;;;;4.00;4.00;;;;;;;;5121991;27;46197;-74
2022/05/16 00:16:20;;;;;;;;;4.33;4.33;;;;;;;;5107897;27;45428;-74
2022/05/16 00:18:45;;;;;;;;;4.67;4.33;;;;;;;;5102676;27;45188;-74
2022/05/16 00:21:10;;;;;;;;;5.33;5.33;;;;;;;;5102770;27;45236;-74
2022/05/16 00:23:36;;;;;;;;;5.67;5.67;;;;;;;;5102385;27;45440;-74
2022/05/16 00:26:01;;;;;;;;;7.00;7.00;;;;;;;;5100829;27;47075;-74
2022/05/16 00:28:26;;;;;;;;;4.33;4.33;;;;;;;;5102355;27;45277;-74
2022/05/16 00:30:51;;;;;;;;;5.67;4.33;;;;;;;;5102589;27;45249;-74
2022/05/16 00:33:17;;;;;;;;;9.00;7.00;;;;;;;;5100622;27;47452;-74
2022/05/16 00:35:42;;;;;;;;;5.67;5.67;;;;;;;;5100690;27;48353;-74
2022/05/16 00:38:07;;;;;;;;;6.33;6.00;;;;;;;;5101961;27;45338;-74
2022/05/16 00:40:32;;;;;;;;;7.67;6.67;;;;;;;;5102536;27;45258;-73
2022/05/16 00:43:05;;;;;;;;;9.67;8.33;;;;;;;;5102135;27;45305;-73
2022/05/16 00:45:30;;;;;;;;;7.33;7.00;;;;;;;;5102255;27;45248;-74
2022/05/16 00:47:56;;;;;;;;;8.00;7.67;;;;;;;;5102167;27;45258;-74
2022/05/16 00:50:21;;;;;;;;;9.33;8.00;;;;;;;;5102430;27;45253;-74
2022/05/16 00:52:48;;;;;;;;;7.33;7.00;;;;;;;;5102126;27;45224;-75
2022/05/16 00:55:33;;;;;;;;;7.00;7.00;;;;;;;;5102094;27;46170;-73
2022/05/16 00:58:01;;;;;;;;;7.67;7.67;;;;;;;;5101688;27;45250;-74
2022/05/16 01:00:28;;;;;;;;;6.33;6.33;;;;;;;;5101558;27;45393;-73
2022/05/16 01:05:43;;;;;;;;;7.00;7.00;;;;;;;;5101461;27;45763;-74
2022/05/16 01:08:10;;;;;;;;;6.33;6.00;;;;;;;;5101601;27;45355;-74
2022/05/16 01:10:35;;;;;;;;;8.67;8.00;;;;;;;;5102340;27;45332;-74
2022/05/16 01:13:03;;;;;;;;;7.00;7.00;;;;;;;;5101574;27;45468;-74
2022/05/16 01:15:39;;;;;;;;;7.00;5.67;;;;;;;;5109361;27;45668;-74
2022/05/16 01:18:05;;;;;;;;;7.67;7.67;;;;;;;;5120690;27;46579;-74
2022/05/16 01:20:43;;;;;;;;;7.33;7.00;;;;;;;;5119677;27;45326;-74
2022/05/16 01:23:08;;;;;;;;;6.00;6.00;;;;;;;;5122067;27;45498;-73
2022/05/16 01:25:34;;;;;;;;;8.67;7.00;;;;;;;;5122165;27;45321;-74
2022/05/16 01:28:04;;;;;;;;;6.00;6.00;;;;;;;;5120437;27;45355;-74
2022/05/16 01:30:50;;;;;;;;;7.33;6.00;;;;;;;;5122236;27;45354;-74
2022/05/16 01:33:19;;;;;;;;;6.67;6.67;;;;;;;;5120921;27;45246;-74
2022/05/16 01:35:44;;;;;;;;;5.33;5.33;;;;;;;;5121940;27;46286;-74
2022/05/16 01:38:19;;;;;;;;;9.67;8.67;;;;;;;;5120220;27;45363;-74
2022/05/16 01:41:02;;;;;;;;;7.00;7.00;;;;;;;;5122271;27;45409;-73
2022/05/16 01:43:33;;;;;;;;;9.67;8.00;;;;;;;;5121752;27;45430;-74
2022/05/16 01:45:59;;;;;;;;;8.00;8.00;;;;;;;;5121523;27;47276;-73
2022/05/16 01:48:25;;;;;;;;;9.00;9.00;;;;;;;;5120215;27;45327;-74
2022/05/16 01:50:51;;;;;;;;;8.33;8.33;;;;;;;;5121941;27;45285;-74
2022/05/16 01:53:17;;;;;;;;;7.67;7.33;;;;;;;;5121692;27;45463;-74
2022/05/16 01:55:42;;;;;;;;;10.00;9.67;;;;;;;;5120202;27;47488;-74
2022/05/16 01:58:08;;;;;;;;;9.67;9.67;;;;;;;;5121544;27;45328;-74
2022/05/16 02:00:33;;;;;;;;;10.33;9.33;;;;;;;;5121982;27;45358;-74
2022/05/16 02:02:59;;;;;;;;;11.67;11.33;;;;;;;;5121568;27;45528;-74
2022/05/16 02:05:25;;;;;;;;;9.33;9.00;;;;;;;;5121185;27;45386;-73
2022/05/16 02:07:50;;;;;;;;;9.00;9.00;;;;;;;;5121510;27;45304;-74
2022/05/16 02:10:16;;;;;;;;;8.67;8.67;;;;;;;;5121783;27;45294;-74
2022/05/16 02:12:42;;;;;;;;;9.33;9.33;;;;;;;;5121446;27;45376;-74
2022/05/16 02:15:08;;;;;;;;;10.00;10.00;;;;;;;;5116233;27;45496;-73
2022/05/16 02:17:33;;;;;;;;;6.00;6.00;;;;;;;;5099384;27;45650;-73
2022/05/16 02:19:59;;;;;;;;;8.00;8.00;;;;;;;;5099526;27;45336;-74
2022/05/16 02:25:08;;;;;;;;;9.00;9.00;;;;;;;;5100476;27;45217;-74
2022/05/16 02:27:34;;;;;;;;;10.67;9.00;;;;;;;;5100521;27;45301;-73
2022/05/16 02:29:59;;;;;;;;;10.00;10.00;;;;;;;;5100483;27;45326;-74
2022/05/16 02:32:24;;;;;;;;;12.00;12.00;;;;;;;;5098839;27;45901;-74
2022/05/16 02:34:49;;;;;;;;;7.33;7.33;;;;;;;;5099140;27;47559;-74
2022/05/16 02:37:15;;;;;;;;;10.00;9.33;;;;;;;;5100370;27;45313;-74
2022/05/16 02:39:44;;;;;;;;;12.67;12.67;;;;;;;;5099008;27;45361;-73
2022/05/16 02:42:10;;;;;;;;;8.67;8.67;;;;;;;;5100495;27;45420;-74
2022/05/16 02:44:35;;;;;;;;;9.00;9.00;;;;;;;;5099794;27;45342;-73
2022/05/16 02:47:01;;;;;;;;;10.33;9.33;;;;;;;;5100244;27;45356;-74
2022/05/16 02:49:26;;;;;;;;;12.33;11.67;;;;;;;;5099006;27;45345;-73
2022/05/16 02:51:52;;;;;;;;;10.00;10.00;;;;;;;;5100182;27;45700;-74
2022/05/16 02:54:17;;;;;;;;;13.00;13.00;;;;;;;;5100091;27;46121;-73
2022/05/16 02:56:42;;;;;;;;;11.67;10.33;;;;;;;;5100303;27;45275;-74
2022/05/16 02:59:07;;;;;;;;;11.00;11.00;;;;;;;;5100279;27;45405;-74
2022/05/16 03:01:36;;;;;;;;;10.33;10.33;;;;;;;;5100156;27;45262;-74
2022/05/16 03:04:02;;;;;;;;;11.00;11.00;;;;;;;;5100277;27;46146;-74
2022/05/16 03:06:27;;;;;;;;;13.00;13.00;;;;;;;;5099595;27;45603;-74
2022/05/16 03:08:53;;;;;;;;;11.67;11.33;;;;;;;;5099815;27;45352;-74
2022/05/16 03:11:18;;;;;;;;;12.67;12.67;;;;;;;;5098513;27;46487;-74
2022/05/16 03:13:43;;;;;;;;;11.33;11.33;;;;;;;;5099932;27;45511;-74
2022/05/16 03:16:08;;;;;;;;;14.00;13.33;;;;;;;;5113455;27;45274;-74
2022/05/16 03:18:33;;;;;;;;;11.33;11.00;;;;;;;;5120708;27;45263;-74
2022/05/16 03:20:59;;;;;;;;;13.00;13.00;;;;;;;;5120499;27;45279;-74
2022/05/16 03:23:24;;;;;;;;;15.33;13.33;;;;;;;;5120093;27;45451;-74
2022/05/16 03:25:49;;;;;;;;;13.00;13.00;;;;;;;;5118692;27;45552;-74
2022/05/16 03:28:15;;;;;;;;;13.00;13.00;;;;;;;;5119052;27;45730;-74
2022/05/16 03:30:42;;;;;;;;;14.67;14.67;;;;;;;;5120444;27;45454;-73
2022/05/16 03:33:08;;;;;;;;;12.33;12.00;;;;;;;;5118837;27;47173;-74
2022/05/16 03:35:33;;;;;;;;;14.67;12.67;;;;;;;;5118922;27;46003;-74
2022/05/16 03:37:58;;;;;;;;;14.67;14.67;;;;;;;;5120005;27;45278;-74
2022/05/16 03:40:42;;;;;;;;;15.00;14.33;;;;;;;;5120100;27;45297;-74
2022/05/16 03:43:08;;;;;;;;;11.00;11.00;;;;;;;;5120168;27;45485;-73
2022/05/16 03:45:33;;;;;;;;;15.67;12.00;;;;;;;;5123702;27;45349;-74
2022/05/16 03:47:58;;;;;;;;;17.33;15.33;;;;;;;;5122606;27;45279;-74
2022/05/16 03:50:24;;;;;;;;;12.67;12.67;;;;;;;;5123732;27;45351;-74
2022/05/16 03:52:49;;;;;;;;;16.00;16.00;;;;;;;;5123728;27;45574;-73
2022/05/16 03:55:15;;;;;;;;;16.00;15.00;;;;;;;;5122349;27;45265;-74
2022/05/16 03:57:41;;;;;;;;;13.00;13.00;;;;;;;;5123626;27;45235;-73
2022/05/16 04:00:09;;;;;;;;;14.67;13.67;;;;;;;;5123631;27;45200;-77
2022/05/16 04:02:35;;;;;;;;;12.67;12.67;;;;;;;;5122038;27;48401;-74
2022/05/16 04:05:00;;;;;;;;;14.33;13.00;;;;;;;;5123521;27;45400;-74
2022/05/16 04:07:26;;;;;;;;;17.00;15.00;;;;;;;;5122146;27;45353;-74
2022/05/16 04:09:51;;;;;;;;;14.33;14.33;;;;;;;;5123570;27;45300;-74
2022/05/16 04:12:16;;;;;;;;;15.33;15.00;;;;;;;;5123493;27;46306;-74
2022/05/16 04:14:41;;;;;;;;;17.67;16.67;;;;;;;;5121988;27;45340;-74
2022/05/16 04:17:07;;;;;;;;;17.67;16.00;;;;;;;;5101613;27;45455;-74
2022/05/16 04:19:32;;;;;;;;;17.67;16.33;;;;;;;;5101198;27;46466;-74
2022/05/16 04:21:57;;;;;;;;;16.67;15.67;;;;;;;;5102601;27;46020;-74
2022/05/16 04:24:22;;;;;;;;;16.67;14.33;;;;;;;;5102714;27;45274;-74
2022/05/16 04:26:48;;;;;;;;;16.67;16.33;;;;;;;;5102668;27;45326;-73
2022/05/16 04:29:13;;;;;;;;;17.00;17.00;;;;;;;;5102466;27;45308;-74
2022/05/16 04:31:38;;;;;;;;;16.00;15.67;;;;;;;;5102306;27;45451;-74
2022/05/16 04:34:09;;;;;;;;;14.67;14.67;;;;;;;;5102664;27;45276;-74
2022/05/16 04:36:34;;;;;;;;;18.33;18.33;;;;;;;;5102470;27;45364;-74
2022/05/16 04:38:59;;;;;;;;;15.33;15.33;;;;;;;;5102136;27;45579;-74
2022/05/16 04:44:08;;;;;;;;;15.00;14.67;;;;;;;;5101715;27;45389;-74
2022/05/16 04:46:34;;;;;;;;;18.33;17.67;;;;;;;;5102040;27;45354;-74
2022/05/16 04:48:59;;;;;;;;;19.67;17.33;;;;;;;;5100715;27;47395;-74
2022/05/16 04:51:24;;;;;;;;;22.00;21.00;;;;;;;;5101742;27;46105;-74
2022/05/16 04:53:49;;;;;;;;;20.00;18.00;;;;;;;;5102130;27;45747;-73
2022/05/16 04:56:14;;;;;;;;;18.33;18.33;;;;;;;;5102113;27;45643;-74
2022/05/16 04:58:40;;;;;;;;;19.00;17.33;;;;;;;;5101907;27;45381;-74
2022/05/16 05:01:05;;;;;;;;;15.67;15.67;;;;;;;;5101762;27;46277;-75
2022/05/16 05:03:30;;;;;;;;;24.00;20.33;;;;;;;;5102075;27;45327;-74
2022/05/16 05:05:55;;;;;;;;;17.67;17.00;;;;;;;;5101958;27;45239;-74
2022/05/16 05:08:21;;;;;;;;;18.33;18.33;;;;;;;;5101623;27;45318;-74
2022/05/16 05:16:15;;;;;;;;;24.00;21.33;;;;;;;;5116065;27;45347;-74
2022/05/16 05:18:41;;;;;;;;;23.33;22.00;;;;;;;;5122368;27;45324;-74
2022/05/16 05:21:07;;;;;;;;;24.67;24.67;;;;;;;;5122039;27;45355;-75
2022/05/16 05:23:34;;;;;;;;;20.00;18.67;;;;;;;;5120915;27;45383;-73
2022/05/16 05:25:59;;;;;;;;;22.33;21.33;;;;;;;;5122271;27;45280;-74
2022/05/16 05:28:25;;;;;;;;;25.67;25.00;;;;;;;;5121780;27;45291;-74
2022/05/16 05:30:50;;;;;;;;;27.67;25.67;;;;;;;;5120873;27;47290;-74
2022/05/16 05:33:15;;;;;;;;;25.67;24.00;;;;;;;;5121950;27;45320;-74
2022/05/16 05:35:40;;;;;;;;;26.33;24.33;;;;;;;;5122065;27;45451;-74
2022/05/16 05:38:05;;;;;;;;;28.67;28.00;;;;;;;;5121653;27;45209;-74
2022/05/16 05:40:31;;;;;;;;;22.67;22.00;;;;;;;;5120281;27;47278;-74
2022/05/16 05:43:01;;;;;;;;;25.33;25.33;;;;;;;;5082775;27;45396;-74
2022/05/16 05:45:26;;;;;;;;;24.33;24.00;;;;;;;;5097851;27;45396;-74
2022/05/16 05:47:51;;;;;;;;;23.33;20.67;;;;;;;;5101153;27;45554;-77
2022/05/16 05:50:16;;;;;;;;;29.00;28.00;;;;;;;;5101193;27;45329;-74
2022/05/16 05:52:41;;;;;;;;;30.67;29.00;;;;;;;;5099800;27;45847;-74
2022/05/16 05:55:07;;;;;;;;;29.67;28.00;;;;;;;;5081252;27;45333;-74
2022/05/16 05:57:33;;;;;;;;;26.67;25.67;;;;;;;;5098429;27;45348;-75
2022/05/16 05:59:58;;;;;;;;;26.67;26.67;;;;;;;;5084637;27;45314;-75
2022/05/16 06:02:24;;;;;;;;;30.67;30.00;;;;;;;;5080185;27;45302;-76
2022/05/16 06:04:50;;;;;;;;;29.67;27.67;;;;;;;;5079349;28;45371;-75
2022/05/16 06:07:15;;;;;;;;;28.33;28.00;;;;;;;;5079679;27;45502;-76
2022/05/16 06:09:41;;;;;;;;;29.33;28.00;;;;;;;;5079023;28;48067;-76
2022/05/16 06:12:07;;;;;;;;;26.33;25.33;;;;;;;;5079690;27;45458;-74
2022/05/16 06:14:33;;;;;;;;;32.00;29.67;;;;;;;;5080716;27;45268;-74
2022/05/16 06:16:58;;;;;;;;;25.67;25.67;;;;;;;;5079305;28;45963;-74
2022/05/16 06:19:23;;;;;;;;;25.67;25.33;;;;;;;;5081617;27;45548;-74
2022/05/16 06:21:49;;;;;;;;;31.67;30.00;;;;;;;;5088047;27;45446;-73
2022/05/16 06:26:58;;;;;;;;;30.00;29.00;;;;;;;;5085414;27;45559;-73
2022/05/16 06:29:25;;;;;;;;;27.33;26.00;;;;;;;;5079416;27;45476;-73
2022/05/16 06:31:50;;;;;;;;;29.00;28.33;;;;;;;;5087139;27;45348;-73
2022/05/16 06:34:15;;;;;;;;;32.67;29.67;;;;;;;;5089383;27;45411;-73
2022/05/16 06:36:40;;;;;;;;;29.00;27.33;;;;;;;;5100570;27;45405;-74
2022/05/16 06:39:06;;;;;;;;;32.00;28.33;;;;;;;;5098885;27;48370;-74
2022/05/16 06:41:34;;;;;;;;;32.67;30.33;;;;;;;;5099376;27;45284;-73
2022/05/16 06:43:59;;;;;;;;;32.67;30.33;;;;;;;;5094665;27;45247;-73
2022/05/16 06:46:25;;;;;;;;;27.00;25.67;;;;;;;;5098983;27;45456;-73
2022/05/16 06:48:50;;;;;;;;;30.00;28.33;;;;;;;;5099298;27;48522;-72
2022/05/16 06:51:15;;;;;;;;;24.67;24.67;;;;;;;;5100508;27;45350;-72
2022/05/16 06:53:40;;;;;;;;;28.00;25.67;;;;;;;;5100242;27;45359;-73
2022/05/16 06:56:05;;;;;;;;;26.00;26.00;;;;;;;;5100450;27;45450;-72
2022/05/16 06:58:31;;;;;;;;;27.33;27.00;;;;;;;;5098621;27;47965;-72
2022/05/16 07:00:56;;;;;;;;;32.00;28.33;;;;;;;;5100064;27;45266;-71
2022/05/16 07:03:21;;;;;;;;;27.00;27.00;;;;;;;;5100265;27;45421;-72
2022/05/16 07:05:48;;;;;;;;;29.00;29.00;;;;;;;;5092649;27;45506;-72
2022/05/16 07:08:13;;;;;;;;;26.33;26.33;;;;;;;;5079440;28;45432;-73
2022/05/16 07:10:39;;;;;;;;;31.00;28.67;;;;;;;;5080045;27;46104;-74
2022/05/16 07:13:04;;;;;;;;;24.00;24.00;;;;;;;;5091834;27;45468;-74
2022/05/16 07:15:29;;;;;;;;;25.33;25.33;;;;;;;;5082573;27;45394;-74
2022/05/16 07:17:54;;;;;;;;;26.67;25.00;;;;;;;;5082568;27;48097;-74
2022/05/16 07:20:20;;;;;;;;;30.33;28.00;;;;;;;;5080231;27;45883;-74
2022/05/16 07:22:46;;;;;;;;;31.33;30.00;;;;;;;;5080735;27;45365;-75
2022/05/16 07:25:13;;;;;;;;;28.00;28.00;;;;;;;;5081258;27;45563;-74
2022/05/16 07:27:56;;;;;;;;;27.33;26.33;;;;;;;;5086122;27;45380;-74
2022/05/16 07:30:24;;;;;;;;;27.67;26.00;;;;;;;;5085191;27;45609;-74
2022/05/16 07:32:50;;;;;;;;;30.67;29.00;;;;;;;;5082844;27;45484;-73
2022/05/16 07:35:18;;;;;;;;;26.33;24.33;;;;;;;;5080223;27;46086;-73
2022/05/16 07:37:44;;;;;;;;;28.00;27.00;;;;;;;;5099353;27;45392;-74
2022/05/16 07:40:10;;;;;;;;;30.33;29.33;;;;;;;;5095053;27;45407;-73
2022/05/16 07:42:36;;;;;;;;;25.67;25.00;;;;;;;;5079681;27;45392;-73
2022/05/16 07:45:02;;;;;;;;;26.67;25.33;;;;;;;;5079147;27;45485;-74
2022/05/16 07:47:30;;;;;;;;;30.33;27.67;;;;;;;;5077660;28;48679;-74
2022/05/16 07:49:55;;;;;;;;;24.67;23.67;;;;;;;;5079128;27;45306;-73
2022/05/16 07:52:20;;;;;;;;;26.00;25.00;;;;;;;;5077704;28;45605;-73
2022/05/16 07:54:45;;;;;;;;;26.67;25.67;;;;;;;;5077445;28;46156;-74
2022/05/16 07:57:10;;;;;;;;;28.00;28.00;;;;;;;;5079111;27;46112;-73
2022/05/16 07:59:36;;;;;;;;;26.67;26.00;;;;;;;;5077553;28;45369;-73
2022/05/16 08:02:01;;;;;;;;;28.00;24.00;;;;;;;;5079413;27;45654;-74
2022/05/16 08:04:26;;;;;;;;;28.67;25.33;;;;;;;;5078993;27;45381;-74
2022/05/16 08:06:51;;;;;;;;;28.00;26.00;;;;;;;;5078840;27;45208;-74
2022/05/16 08:12:02;;;;;;;;;24.33;24.00;;;;;;;;5079894;28;45358;-75
2022/05/16 08:14:27;;;;;;;;;22.33;21.67;;;;;;;;5078199;28;45672;-75
2022/05/16 08:16:52;;;;;;;;;25.00;23.33;;;;;;;;5118241;27;45258;-75
2022/05/16 08:19:17;;;;;;;;;23.00;22.33;;;;;;;;5116628;27;45519;-75
2022/05/16 08:21:43;;;;;;;;;22.00;22.00;;;;;;;;5082190;27;46497;-75
2022/05/16 08:24:11;;;;;;;;;24.67;24.67;;;;;;;;5091275;27;45550;-74
2022/05/16 08:26:36;;;;;;;;;27.67;25.33;;;;;;;;5078513;27;45349;-76
2022/05/16 08:29:02;;;;;;;;;25.00;24.00;;;;;;;;5078969;27;45365;-73
2022/05/16 08:31:28;;;;;;;;;23.00;21.33;;;;;;;;5086533;27;45505;-73
2022/05/16 08:33:54;;;;;;;;;25.00;23.33;;;;;;;;5081284;27;45248;-72
2022/05/16 08:41:54;;;;;;;;;21.00;19.67;;;;;;;;5080637;27;45493;-72
2022/05/16 08:44:27;;;;;;;;;18.00;18.00;;;;;;;;5093813;27;45409;-73
2022/05/16 08:47:00;;;;;;;;;20.67;19.33;;;;;;;;5081474;27;45583;-73
2022/05/16 08:49:52;;;;;;;;;18.00;18.00;;;;;;;;5079909;27;46226;-75
2022/05/16 08:52:36;;;;;;;;;20.33;19.00;;;;;;;;5086780;27;45294;-74
2022/05/16 08:55:01;;;;;;;;;19.00;16.67;;;;;;;;5089574;27;46858;-74
2022/05/16 08:57:36;;;;;;;;;16.00;15.67;;;;;;;;5081182;27;46081;-74
2022/05/16 09:00:25;;;;;;;;;18.00;18.00;;;;;;;;5080629;27;45352;-73
2022/05/16 09:02:50;;;;;;;;;13.33;13.00;;;;;;;;5094880;27;45550;-74
2022/05/16 09:05:19;;;;;;;;;13.67;12.67;;;;;;;;5097122;27;47033;-74
2022/05/16 09:07:49;;;;;;;;;16.33;14.67;;;;;;;;5082621;27;45384;-73
2022/05/16 09:10:21;;;;;;;;;18.33;17.33;;;;;;;;5081538;27;45367;-74
2022/05/16 09:12:56;;;;;;;;;18.33;15.67;;;;;;;;5083255;27;45347;-73
2022/05/16 09:15:30;;;;;;;;;17.67;17.00;;;;;;;;5094968;27;46123;-74
2022/05/16 09:18:22;;;;;;;;;17.00;16.00;;;;;;;;5092668;27;45587;-74
2022/05/16 09:20:54;;;;;;;;;20.00;18.33;;;;;;;;5079970;28;45523;-73
2022/05/16 09:23:32;;;;;;;;;17.00;16.67;;;;;;;;5081183;27;45530;-73
2022/05/16 09:26:16;;;;;;;;;12.67;12.33;;;;;;;;5081069;27;45421;-74
2022/05/16 09:28:47;;;;;;;;;16.00;14.00;;;;;;;;5079740;27;47237;-73
2022/05/16 09:31:15;;;;;;;;;14.67;14.67;;;;;;;;5081101;27;45287;-73
2022/05/16 09:33:43;;;;;;;;;15.00;15.00;;;;;;;;5096060;27;45283;-74
2022/05/16 09:36:09;;;;;;;;;14.67;13.00;;;;;;;;5087767;27;45442;-73
2022/05/16 09:38:35;;;;;;;;;16.33;14.67;;;;;;;;5090392;27;46055;-74
2022/05/16 09:41:03;;;;;;;;;15.67;15.67;;;;;;;;5099488;27;45384;-73
2022/05/16 09:43:39;;;;;;;;;16.33;15.00;;;;;;;;5094840;27;45261;-74
2022/05/16 09:46:13;;;;;;;;;14.33;13.67;;;;;;;;5079215;27;45959;-75
2022/05/16 09:48:38;;;;;;;;;15.67;15.00;;;;;;;;5099350;27;45374;-73
2022/05/16 09:51:05;;;;;;;;;17.33;15.00;;;;;;;;5086912;27;45420;-74
2022/05/16 09:53:36;;;;;;;;;12.33;12.33;;;;;;;;5080250;27;45353;-72
2022/05/16 09:56:20;;;;;;;;;15.67;14.00;;;;;;;;5080438;27;45353;-72
2022/05/16 09:58:48;;;;;;;;;13.67;13.00;;;;;;;;5080278;27;46344;-73
2022/05/16 10:01:26;;;;;;;;;12.33;12.33;;;;;;;;5078816;27;46298;-73
2022/05/16 10:03:52;;;;;;;;;14.33;14.00;;;;;;;;5079553;28;45278;-74
2022/05/16 10:06:33;;;;;;;;;11.67;11.67;;;;;;;;5080725;27;45282;-73
2022/05/16 10:09:06;;;;;;;;;13.67;13.00;;;;;;;;5080564;27;45270;-74
2022/05/16 10:11:31;;;;;;;;;12.00;12.00;;;;;;;;5079235;28;45665;-74
2022/05/16 10:13:57;;;;;;;;;13.33;12.00;;;;;;;;5080680;27;45410;-74
2022/05/16 10:16:24;;;;;;;;;14.67;13.67;;;;;;;;5111656;27;45343;-75
2022/05/16 10:18:50;;;;;;;;;15.33;14.67;;;;;;;;5121678;27;45311;-74
2022/05/16 10:21:20;;;;;;;;;10.67;10.00;;;;;;;;5121612;27;45238;-74
2022/05/16 10:23:45;;;;;;;;;14.00;11.00;;;;;;;;5113541;27;45359;-74
2022/05/16 10:26:18;;;;;;;;;9.00;9.00;;;;;;;;5079843;27;45366;-73
2022/05/16 10:28:49;;;;;;;;;11.33;9.33;;;;;;;;5093307;27;48100;-73
2022/05/16 10:34:06;;;;;;;;;8.33;8.33;;;;;;;;5100895;27;45322;-73
2022/05/16 10:36:33;;;;;;;;;10.67;10.67;;;;;;;;5100687;27;45441;-72
2022/05/16 10:39:06;;;;;;;;;14.00;14.00;;;;;;;;5100441;27;45344;-73
2022/05/16 10:41:35;;;;;;;;;8.67;8.67;;;;;;;;5100671;27;45521;-76
2022/05/16 10:44:12;;;;;;;;;8.00;8.00;;;;;;;;5100684;27;45332;-73
2022/05/16 10:46:39;;;;;;;;;7.00;5.67;;;;;;;;5100409;27;45434;-73
2022/05/16 10:49:08;;;;;;;;;8.00;6.33;;;;;;;;5099135;27;47008;-73
2022/05/16 10:51:40;;;;;;;;;7.00;7.00;;;;;;;;5100500;27;45216;-74
2022/05/16 10:54:10;;;;;;;;;9.33;9.33;;;;;;;;5100492;27;45275;-73
2022/05/16 10:56:36;;;;;;;;;6.00;6.00;;;;;;;;5085747;27;45393;-74
2022/05/16 10:59:08;;;;;;;;;9.00;9.00;;;;;;;;5078188;27;45338;-75
2022/05/16 11:01:41;;;;;;;;;7.00;7.00;;;;;;;;5093521;27;45297;-72
2022/05/16 11:04:19;;;;;;;;;8.33;8.00;;;;;;;;5079732;27;45378;-72
2022/05/16 11:06:53;;;;;;;;;12.00;11.00;;;;;;;;5100033;27;45260;-73
2022/05/16 11:09:28;;;;;;;;;11.00;11.00;;;;;;;;5080096;27;45637;-72
2022/05/16 11:11:53;;;;;;;;;12.00;9.67;;;;;;;;5078176;27;45313;-74
2022/05/16 11:14:22;;;;;;;;;10.67;10.67;;;;;;;;5078179;28;45405;-75
2022/05/16 11:16:50;;;;;;;;;10.33;9.00;;;;;;;;5116127;27;47154;-74
2022/05/16 11:19:21;;;;;;;;;10.00;9.00;;;;;;;;5111556;27;47547;-74
2022/05/16 11:21:49;;;;;;;;;11.00;10.00;;;;;;;;5079864;27;45492;-74
2022/05/16 11:24:14;;;;;;;;;14.33;13.67;;;;;;;;5079843;28;45325;-75
2022/05/16 11:26:43;;;;;;;;;11.00;10.33;;;;;;;;5079426;27;45282;-74
2022/05/16 11:29:27;;;;;;;;;13.33;12.00;;;;;;;;5078112;28;47129;-76
2022/05/16 11:32:02;;;;;;;;;12.67;10.33;;;;;;;;5079216;27;45330;-75
2022/05/16 11:34:27;;;;;;;;;9.00;9.00;;;;;;;;5079688;27;45392;-75
2022/05/16 11:37:01;;;;;;;;;14.00;12.00;;;;;;;;5079369;27;45438;-74
2022/05/16 11:39:33;;;;;;;;;10.33;10.00;;;;;;;;5079239;27;45385;-74
2022/05/16 11:42:01;;;;;;;;;11.67;11.67;;;;;;;;5079668;27;45488;-74
2022/05/16 11:44:44;;;;;;;;;11.67;11.67;;;;;;;;5078103;28;45351;-75
2022/05/16 11:47:26;;;;;;;;;10.33;10.33;;;;;;;;5092684;27;46417;-76
2022/05/16 11:49:54;;;;;;;;;14.67;13.00;;;;;;;;5087980;27;45475;-75
2022/05/16 11:52:31;;;;;;;;;10.67;10.67;;;;;;;;5092909;27;45309;-74
2022/05/16 11:55:02;;;;;;;;;12.67;10.67;;;;;;;;5088408;27;45528;-74
2022/05/16 12:02:49;;;;;;;;;10.67;10.33;;;;;;;;5089520;27;45409;-74
2022/05/16 12:05:21;;;;;;;;;9.00;8.33;;;;;;;;5084075;27;45978;-75
2022/05/16 12:07:49;;;;;;;;;14.33;14.33;;;;;;;;5089927;27;45959;-74
2022/05/16 12:10:14;;;;;;;;;11.33;11.33;;;;;;;;5091636;27;45446;-74
2022/05/16 12:12:41;;;;;;;;;13.67;11.67;;;;;;;;5090500;27;45614;-74
2022/05/16 12:15:16;;;;;;;;;13.67;12.00;;;;;;;;5094859;27;45349;-74
2022/05/16 12:17:52;;;;;;;;;12.00;10.00;;;;;;;;5090436;27;46313;-74
2022/05/16 12:20:33;;;;;;;;;8.00;8.00;;;;;;;;5091469;27;46047;-75
2022/05/16 12:22:58;;;;;;;;;10.67;10.00;;;;;;;;5091423;27;45767;-74
2022/05/16 12:25:29;;;;;;;;;10.00;10.00;;;;;;;;5089376;27;45350;-74
2022/05/16 12:28:13;;;;;;;;;11.33;11.33;;;;;;;;5089930;27;46087;-74
2022/05/16 12:30:38;;;;;;;;;12.33;10.33;;;;;;;;5086772;27;48195;-74
2022/05/16 12:33:26;;;;;;;;;11.00;10.67;;;;;;;;5089253;27;45460;-75
2022/05/16 12:35:53;;;;;;;;;12.67;11.33;;;;;;;;5082880;27;45495;-74
2022/05/16 12:38:19;;;;;;;;;10.33;10.00;;;;;;;;5092088;27;46043;-74
2022/05/16 12:40:44;;;;;;;;;10.67;10.67;;;;;;;;5092580;27;45953;-74
2022/05/16 12:43:28;;;;;;;;;11.67;11.67;;;;;;;;5086931;27;45271;-74
2022/05/16 12:46:02;;;;;;;;;10.00;10.00;;;;;;;;5091690;27;45312;-74
2022/05/16 12:48:42;;;;;;;;;11.33;10.67;;;;;;;;5100405;27;45349;-74
2022/05/16 12:51:25;;;;;;;;;9.67;9.67;;;;;;;;5091683;27;46536;-74
2022/05/16 12:54:17;;;;;;;;;11.33;11.00;;;;;;;;5094988;27;45629;-74
2022/05/16 12:56:42;;;;;;;;;9.67;9.67;;;;;;;;5084493;27;45532;-74
2022/05/16 12:59:07;;;;;;;;;8.00;8.00;;;;;;;;5092704;27;45422;-75
2022/05/16 13:01:38;;;;;;;;;11.67;10.67;;;;;;;;5089852;27;47817;-74
2022/05/16 13:04:06;;;;;;;;;10.00;8.67;;;;;;;;5091984;27;46120;-74
2022/05/16 13:06:31;;;;;;;;;7.67;7.67;;;;;;;;5093068;27;45244;-74
2022/05/16 13:09:09;;;;;;;;;10.67;8.67;;;;;;;;5092778;27;45333;-75
2022/05/16 13:11:49;;;;;;;;;9.00;9.00;;;;;;;;5086974;27;46526;-74
2022/05/16 13:14:27;;;;;;;;;10.67;10.00;;;;;;;;5093820;27;45334;-75
2022/05/16 13:16:57;;;;;;;;;8.67;7.67;;;;;;;;5121143;27;45399;-75
2022/05/16 13:19:28;;;;;;;;;11.33;8.33;;;;;;;;5122871;27;45429;-74
2022/05/16 13:21:56;;;;;;;;;6.33;6.33;;;;;;;;5121099;27;47359;-74
2022/05/16 13:24:23;;;;;;;;;8.00;6.00;;;;;;;;5122712;27;45255;-74
2022/05/16 13:29:34;;;;;;;;;5.00;5.00;;;;;;;;5122429;27;45336;-74
2022/05/16 13:32:06;;;;;;;;;6.33;6.33;;;;;;;;5120779;27;46915;-74
2022/05/16 13:34:35;;;;;;;;;6.00;6.00;;;;;;;;5122719;27;45352;-74
2022/05/16 13:37:02;;;;;;;;;7.00;5.00;;;;;;;;5122563;27;45254;-74
2022/05/16 13:39:33;;;;;;;;;5.33;5.33;;;;;;;;5120899;27;47487;-75
2022/05/16 13:42:00;;;;;;;;;7.00;4.67;;;;;;;;5122374;27;46271;-73
2022/05/16 13:44:33;;;;;;;;;4.00;4.00;;;;;;;;5122135;27;45348;-73
2022/05/16 13:47:00;;;;;;;;;6.00;6.00;;;;;;;;5122425;27;45282;-74
2022/05/16 13:49:26;;;;;;;;;4.00;4.00;;;;;;;;5096409;27;45326;-75
2022/05/16 13:51:52;;;;;;;;;5.67;5.67;;;;;;;;5080480;27;45322;-73
2022/05/16 13:54:20;;;;;;;;;6.33;5.00;;;;;;;;5080111;27;45804;-74
2022/05/16 13:56:47;;;;;;;;;4.00;4.00;;;;;;;;5081342;27;45372;-74
2022/05/16 13:59:12;;;;;;;;;5.00;5.00;;;;;;;;5079334;28;47300;-74
2022/05/16 14:01:38;;;;;;;;;6.00;6.00;;;;;;;;5080887;27;45290;-74
2022/05/16 14:04:06;;;;;;;;;4.00;4.00;;;;;;;;5081136;27;45369;-75
2022/05/16 14:06:37;;;;;;;;;4.00;4.00;;;;;;;;5080877;27;45211;-73
2022/05/16 14:09:05;;;;;;;;;5.00;5.00;;;;;;;;5080026;28;46332;-76
2022/05/16 14:11:32;;;;;;;;;5.00;5.00;;;;;;;;5079639;28;47499;-74
2022/05/16 14:13:57;;;;;;;;;5.00;5.00;;;;;;;;5081314;27;45332;-75
2022/05/16 14:16:31;;;;;;;;;4.67;4.67;;;;;;;;5110820;27;45284;-73
2022/05/16 14:18:59;;;;;;;;;5.00;4.67;;;;;;;;5120263;27;46143;-73
2022/05/16 14:21:26;;;;;;;;;4.00;4.00;;;;;;;;5121530;27;45399;-71
2022/05/16 14:23:58;;;;;;;;;9.00;6.00;;;;;;;;5120288;27;45282;-72
2022/05/16 14:26:25;;;;;;;;;6.67;5.00;;;;;;;;5120311;27;45202;-71
2022/05/16 14:28:54;;;;;;;;;7.67;6.00;;;;;;;;5120762;27;45328;-73
2022/05/16 14:31:28;;;;;;;;;8.67;8.67;;;;;;;;5121287;27;45160;-73
2022/05/16 14:34:00;;;;;;;;;8.00;8.00;;;;;;;;5120101;27;45320;-74
2022/05/16 14:36:30;;;;;;;;;7.33;7.33;;;;;;;;5120243;27;45243;-74
2022/05/16 14:39:02;;;;;;;;;7.67;7.67;;;;;;;;5121304;27;45267;-74
2022/05/16 14:41:27;;;;;;;;;8.00;7.00;;;;;;;;5119839;27;48090;-74
2022/05/16 14:44:02;;;;;;;;;6.33;5.67;;;;;;;;5093827;27;45323;-74
2022/05/16 14:46:43;;;;;;;;;6.50;6.50;;;;;;;;5080435;27;45281;-73
2022/05/16 14:49:09;;;;;;;;;6.00;6.00;;;;;;;;5090705;27;45375;-73
2022/05/16 14:51:34;;;;;;;;;7.00;7.00;;;;;;;;5079315;27;45365;-73
2022/05/16 14:54:01;;;;;;;;;5.33;5.33;;;;;;;;5078047;27;45244;-73
2022/05/16 14:56:31;;;;;;;;;6.00;4.67;;;;;;;;5078440;27;45318;-73
2022/05/16 14:58:57;;;;;;;;;5.33;5.33;;;;;;;;5078010;27;46516;-74
2022/05/16 15:04:06;;;;;;;;;6.00;5.00;;;;;;;;5096252;27;45377;-73
2022/05/16 15:06:38;;;;;;;;;4.33;4.33;;;;;;;;5079392;27;45252;-73
2022/05/16 15:09:06;;;;;;;;;5.33;5.33;;;;;;;;5088907;27;45325;-74
2022/05/16 15:11:34;;;;;;;;;5.00;4.00;;;;;;;;5079864;27;45271;-73